Miami, Florida
Traffic Map
Current Weather Conditions
Miami, Florida
Few Clouds
Few Clouds
80°
Feels Like: 84°
Wind Chill: 80° Ceiling: Unl
Heat Index: 84° Visibility: 10mi
Dew Point: 71° Wind: 7mph
Humidity: 74% Direction: 60° (ENE)
Pressure: 29.92in Gusts: 0mph
Raw Report DataKMIA 272353Z 06006KT 10SM FEW026 FEW060 FEW250 27/22 A2992 RMK AO2 SLP133 CB DSNT N AND W T02670217 10300 20267 51000
Traffic Incident Summary
Active as of:
Severity:
Category:
InformationThere was an issue retrieving the traffic information for this location. Please try a different location or try again shortly.
Advertisements
Track Severe Weather on mobile